Time,TemperatureF,DewpointF,PressureIn,WindDirection,WindDirectionDegrees,WindSpeedMPH,WindSpeedGustMPH,Humidity,HourlyPrecipIn,Conditions,Clouds,dailyrainin,SoftwareType,DateUTC
2013-09-11 00:01:00,76.3,71.4,29.91,SSW,202,6.9,6.9,85,0.00,RA,,0.00,WeatherDisplay:10.37,2013-09-11 04:01:00,
2013-09-11 00:02:00,76.3,71.4,29.91,SSW,202,5.8,5.8,85,0.00,RA,,0.00,WeatherDisplay:10.37,2013-09-11 04:02:00,
2013-09-11 00:07:00,76.3,71.4,29.91,SSW,202,5.8,5.8,85,0.00,RA,,0.00,WeatherDisplay:10.37,2013-09-11 04:07:00,
2013-09-11 00:12:00,76.5,71.6,29.91,South,180,8.1,8.1,85,0.00,CLR,,0.00,WeatherDisplay:10.37,2013-09-11 04:12:00,
2013-09-11 00:17:00,76.5,71.3,29.91,SW,225,8.1,8.1,84,0.00,CLR,,0.00,WeatherDisplay:10.37,2013-09-11 04:17:00,
2013-09-11 00:22:00,76.6,71.4,29.91,SW,225,6.0,6.0,84,0.00,CLR,,0.00,WeatherDisplay:10.37,2013-09-11 04:22:00,
2013-09-11 00:27:00,76.6,71.4,29.91,SW,225,10.4,10.4,84,0.00,CLR,,0.00,WeatherDisplay:10.37,2013-09-11 04:27:00,
2013-09-11 00:32:00,76.6,71.4,29.91,SW,225,8.1,8.1,84,0.00,CLR,,0.00,WeatherDisplay:10.37,2013-09-11 04:32:00,
2013-09-11 00:37:00,76.8,71.6,29.91,SW,225,8.1,8.1,84,0.00,CLR,,0.00,WeatherDisplay:10.37,2013-09-11 04:37:00,
2013-09-11 00:42:00,76.6,71.4,29.91,SW,225,9.2,9.2,84,0.00,CLR,,0.00,WeatherDisplay:10.37,2013-09-11 04:42:00,
2013-09-11 00:47:00,76.6,71.8,29.91,SW,225,5.8,5.8,85,0.00,CLR,,0.00,WeatherDisplay:10.37,2013-09-11 04:47:00,
2013-09-11 00:52:00,76.6,71.8,29.91,SW,225,8.1,8.1,85,0.00,CLR,,0.00,WeatherDisplay:10.37,2013-09-11 04:52:00,
2013-09-11 00:57:00,76.6,71.8,29.91,SW,225,6.9,6.9,85,0.00,CLR,,0.00,WeatherDisplay:10.37,2013-09-11 04:57:00,
2013-09-11 01:02:00,76.6,71.8,29.91,SW,225,8.1,8.1,85,0.00,CLR,,0.00,WeatherDisplay:10.37,2013-09-11 05:02:00,
2013-09-11 01:07:00,76.6,71.8,29.91,SW,225,8.1,8.1,85,0.00,CLR,,0.00,WeatherDisplay:10.37,2013-09-11 05:07:00,
2013-09-11 01:12:00,76.6,71.4,29.91,SW,225,8.1,8.1,84,0.00,CLR,,0.00,WeatherDisplay:10.37,2013-09-11 05:12:00,
2013-09-11 01:17:00,76.6,71.4,29.91,SW,225,8.1,8.1,84,0.00,CLR,,0.00,WeatherDisplay:10.37,2013-09-11 05:17:00,
2013-09-11 01:22:00,76.6,71.4,29.91,SW,225,8.1,8.1,84,0.00,CLR,,0.00,WeatherDisplay:10.37,2013-09-11 05:22:00,
2013-09-11 01:27:00,76.6,71.4,29.91,SSW,202,8.1,8.1,84,0.00,CLR,,0.00,WeatherDisplay:10.37,2013-09-11 05:27:00,
2013-09-11 01:32:00,76.8,71.6,29.91,SW,225,8.1,8.1,84,0.00,CLR,,0.00,WeatherDisplay:10.37,2013-09-11 05:32:00,
2013-09-11 01:37:00,76.8,71.6,29.91,SW,225,8.1,8.1,84,0.00,CLR,,0.00,WeatherDisplay:10.37,2013-09-11 05:37:00,
2013-09-11 01:42:00,76.8,71.6,29.91,SSW,202,9.8,9.8,84,0.00,CLR,,0.00,WeatherDisplay:10.37,2013-09-11 05:42:00,
2013-09-11 01:47:00,76.8,71.6,29.91,SW,225,8.1,8.1,84,0.00,CLR,,0.00,WeatherDisplay:10.37,2013-09-11 05:47:00,
2013-09-11 01:52:00,76.8,71.3,29.91,SW,225,8.1,8.1,83,0.00,CLR,,0.00,WeatherDisplay:10.37,2013-09-11 05:52:00,
2013-09-11 01:57:00,76.8,71.3,29.91,SW,225,8.3,8.3,83,0.00,CLR,,0.00,WeatherDisplay:10.37,2013-09-11 05:57:00,
2013-09-11 02:02:00,76.8,71.3,29.91,SW,225,10.4,10.4,83,0.00,CLR,,0.00,WeatherDisplay:10.37,2013-09-11 06:02:00,
2013-09-11 02:07:00,76.8,71.3,29.91,SW,225,10.4,10.4,83,0.00,CLR,,0.00,WeatherDisplay:10.37,2013-09-11 06:07:00,
2013-09-11 02:12:00,76.8,71.3,29.91,SW,225,8.1,8.1,83,0.00,CLR,,0.00,WeatherDisplay:10.37,2013-09-11 06:12:00,
2013-09-11 02:17:00,76.8,71.3,29.91,SW,225,9.2,9.2,83,0.00,CLR,,0.00,WeatherDisplay:10.37,2013-09-11 06:17:00,
2013-09-11 02:22:00,76.8,71.3,29.91,SW,225,10.4,10.4,83,0.00,CLR,,0.00,WeatherDisplay:10.37,2013-09-11 06:22:00,
2013-09-11 02:27:00,76.8,71.3,29.91,SW,225,9.2,9.2,83,0.00,CLR,,0.00,WeatherDisplay:10.37,2013-09-11 06:27:00,
2013-09-11 02:32:00,76.8,71.3,29.91,SW,225,9.2,9.2,83,0.00,CLR,,0.00,WeatherDisplay:10.37,2013-09-11 06:32:00,
2013-09-11 02:37:00,76.6,71.1,29.91,SW,225,11.5,11.5,83,0.00,CLR,,0.00,WeatherDisplay:10.37,2013-09-11 06:37:00,
2013-09-11 02:43:00,76.6,71.1,29.91,SW,225,8.1,8.1,83,0.00,CLR,,0.00,WeatherDisplay:10.37,2013-09-11 06:43:00,
2013-09-11 02:48:00,76.6,71.1,29.91,SW,225,9.2,9.2,83,0.00,CLR,,0.00,WeatherDisplay:10.37,2013-09-11 06:48:00,
2013-09-11 02:53:00,76.6,71.4,29.91,SW,225,8.3,8.3,84,0.00,CLR,,0.00,WeatherDisplay:10.37,2013-09-11 06:53:00,
2013-09-11 02:58:00,76.6,71.4,29.91,SW,225,11.5,11.5,84,0.00,CLR,,0.00,WeatherDisplay:10.37,2013-09-11 06:58:00,
2013-09-11 03:03:00,76.6,71.4,29.91,SW,225,8.1,8.1,84,0.00,CLR,,0.00,WeatherDisplay:10.37,2013-09-11 07:03:00,
2013-09-11 03:08:00,76.6,71.4,29.92,SW,225,8.1,8.1,84,0.00,CLR,,0.00,WeatherDisplay:10.37,2013-09-11 07:08:00,
2013-09-11 03:13:00,76.8,71.3,29.92,SW,225,8.1,8.1,83,0.00,CLR,,0.00,WeatherDisplay:10.37,2013-09-11 07:13:00,
2013-09-11 03:18:00,76.6,71.1,29.92,SW,225,8.1,8.1,83,0.00,CLR,,0.00,WeatherDisplay:10.37,2013-09-11 07:18:00,
2013-09-11 03:23:00,76.6,71.4,29.92,SW,225,8.1,8.1,84,0.00,CLR,,0.00,WeatherDisplay:10.37,2013-09-11 07:23:00,
2013-09-11 03:28:00,76.6,71.4,29.92,SW,225,8.1,8.1,84,0.00,CLR,,0.00,WeatherDisplay:10.37,2013-09-11 07:28:00,
2013-09-11 03:33:00,76.5,71.3,29.91,SW,225,8.1,8.1,84,0.00,CLR,,0.00,WeatherDisplay:10.37,2013-09-11 07:33:00,
2013-09-11 03:38:00,76.3,71.1,29.92,SW,225,10.4,10.4,84,0.00,CLR,,0.00,WeatherDisplay:10.37,2013-09-11 07:38:00,
2013-09-11 03:43:00,76.1,71.3,29.92,SW,225,11.5,11.5,85,0.00,CLR,,0.00,WeatherDisplay:10.37,2013-09-11 07:43:00,
2013-09-11 03:48:00,76.3,71.4,29.92,SW,225,8.1,8.1,85,0.00,CLR,,0.00,WeatherDisplay:10.37,2013-09-11 07:48:00,
2013-09-11 03:53:00,76.1,71.3,29.91,SW,225,8.1,8.1,85,0.00,CLR,,0.00,WeatherDisplay:10.37,2013-09-11 07:53:00,
2013-09-11 03:58:00,76.1,71.6,29.91,SW,225,8.1,8.1,86,0.00,CLR,,0.00,WeatherDisplay:10.37,2013-09-11 07:58:00,
2013-09-11 04:03:00,75.9,71.4,29.91,West,270,6.9,6.9,86,0.00,CLR,,0.00,WeatherDisplay:10.37,2013-09-11 08:03:00,
2013-09-11 04:08:00,75.7,71.3,29.91,WSW,248,9.2,9.2,86,0.00,CLR,,0.00,WeatherDisplay:10.37,2013-09-11 08:08:00,
2013-09-11 04:13:00,75.7,71.3,29.91,SSW,202,10.4,10.4,86,0.00,CLR,,0.00,WeatherDisplay:10.37,2013-09-11 08:13:00,
2013-09-11 04:18:00,75.7,71.3,29.91,WSW,248,8.1,8.1,86,0.00,CLR,,0.00,WeatherDisplay:10.37,2013-09-11 08:18:00,
2013-09-11 04:23:00,75.7,71.6,29.91,SW,225,9.2,9.2,87,0.00,CLR,,0.00,WeatherDisplay:10.37,2013-09-11 08:23:00,
2013-09-11 04:28:00,75.7,71.6,29.91,SW,225,5.8,5.8,87,0.00,CLR,,0.00,WeatherDisplay:10.37,2013-09-11 08:28:00,
2013-09-11 04:33:00,75.7,71.6,29.91,SW,225,8.1,8.1,87,0.00,CLR,,0.00,WeatherDisplay:10.37,2013-09-11 08:33:00,
2013-09-11 04:38:00,75.6,71.4,29.91,SW,225,8.1,8.1,87,0.00,CLR,,0.00,WeatherDisplay:10.37,2013-09-11 08:38:00,
2013-09-11 04:43:00,75.4,71.2,29.91,SW,225,9.2,9.2,87,0.00,CLR,,0.00,WeatherDisplay:10.37,2013-09-11 08:43:00,
2013-09-11 04:48:00,75.6,71.8,29.91,SW,225,9.2,9.2,88,0.00,CLR,,0.00,WeatherDisplay:10.37,2013-09-11 08:48:00,
2013-09-11 04:53:00,75.6,71.8,29.91,SW,225,8.1,8.1,88,0.00,CLR,,0.00,WeatherDisplay:10.37,2013-09-11 08:53:00,
2013-09-11 04:58:00,75.6,71.8,29.91,SW,225,9.2,9.2,88,0.00,CLR,,0.00,WeatherDisplay:10.37,2013-09-11 08:58:00,
2013-09-11 05:03:00,75.6,71.8,29.91,SW,225,8.1,8.1,88,0.00,CLR,,0.00,WeatherDisplay:10.37,2013-09-11 09:03:00,
2013-09-11 05:08:00,75.6,72.1,29.91,WSW,248,8.1,8.1,89,0.00,CLR,,0.00,WeatherDisplay:10.37,2013-09-11 09:08:00,
2013-09-11 05:13:00,75.6,72.1,29.91,SW,225,10.4,10.4,89,0.00,CLR,,0.00,WeatherDisplay:10.37,2013-09-11 09:13:00,
2013-09-11 05:18:00,75.4,71.9,29.91,SW,225,6.9,6.9,89,0.00,CLR,,0.00,WeatherDisplay:10.37,2013-09-11 09:18:00,
2013-09-11 05:23:00,75.2,71.7,29.91,SW,225,8.1,8.1,89,0.00,CLR,,0.00,WeatherDisplay:10.37,2013-09-11 09:23:00,
2013-09-11 05:28:00,75.2,72.1,29.91,SW,225,10.4,10.4,90,0.00,CLR,,0.00,WeatherDisplay:10.37,2013-09-11 09:28:00,
2013-09-11 05:33:00,75.2,72.1,29.91,SSW,202,10.4,10.4,90,0.00,CLR,,0.00,WeatherDisplay:10.37,2013-09-11 09:33:00,
2013-09-11 05:39:00,75.0,72.2,29.91,SW,225,6.9,6.9,91,0.00,CLR,,0.00,WeatherDisplay:10.37,2013-09-11 09:39:00,
2013-09-11 05:44:00,74.8,72.0,29.91,SW,225,8.1,8.1,91,0.00,CLR,,0.00,WeatherDisplay:10.37,2013-09-11 09:44:00,
2013-09-11 05:49:00,74.8,72.0,29.91,SW,225,6.9,6.9,91,0.00,CLR,,0.00,WeatherDisplay:10.37,2013-09-11 09:49:00,
2013-09-11 05:54:00,74.8,72.4,29.91,SW,225,10.4,10.4,92,0.00,CLR,,0.00,WeatherDisplay:10.37,2013-09-11 09:54:00,
2013-09-11 05:59:00,74.8,72.4,29.91,WSW,248,10.4,10.4,92,0.00,CLR,,0.00,WeatherDisplay:10.37,2013-09-11 09:59:00,
2013-09-11 06:04:00,74.8,72.4,29.91,SW,225,8.1,8.1,92,0.00,CLR,,0.00,WeatherDisplay:10.37,2013-09-11 10:04:00,
2013-09-11 06:09:00,74.8,72.4,29.91,SW,225,8.1,8.1,92,0.00,CLR,,0.00,WeatherDisplay:10.37,2013-09-11 10:09:00,
2013-09-11 06:14:00,74.7,72.2,29.91,SW,225,9.2,9.2,92,0.00,CLR,,0.00,WeatherDisplay:10.37,2013-09-11 10:14:00,
2013-09-11 06:19:00,74.5,72.3,29.91,NW,315,9.2,9.2,93,0.00,CLR,,0.00,WeatherDisplay:10.37,2013-09-11 10:19:00,
2013-09-11 06:24:00,74.5,72.3,29.91,SW,225,8.1,8.1,93,0.00,CLR,,0.00,WeatherDisplay:10.37,2013-09-11 10:24:00,
2013-09-11 06:29:00,74.3,72.1,29.92,SW,225,8.1,8.1,93,0.00,CLR,,0.00,WeatherDisplay:10.37,2013-09-11 10:29:00,
2013-09-11 06:34:00,74.3,72.5,29.91,SW,225,6.9,6.9,94,0.00,CLR,,0.00,WeatherDisplay:10.37,2013-09-11 10:34:00,
2013-09-11 06:39:00,74.1,72.3,29.91,SW,225,8.1,8.1,94,0.00,CLR,,0.00,WeatherDisplay:10.37,2013-09-11 10:39:00,
2013-09-11 06:45:00,74.1,72.3,29.92,West,270,8.1,8.1,94,0.00,CLR,,0.00,WeatherDisplay:10.37,2013-09-11 10:45:00,
2013-09-11 06:50:00,73.8,71.9,29.92,SW,225,5.8,5.8,94,0.00,CLR,,0.00,WeatherDisplay:10.37,2013-09-11 10:50:00,
2013-09-11 06:55:00,73.9,72.4,29.91,SW,225,6.9,6.9,95,0.00,CLR,,0.00,WeatherDisplay:10.37,2013-09-11 10:55:00,
2013-09-11 07:00:00,73.8,72.2,29.92,SW,225,6.9,6.9,95,0.00,CLR,,0.00,WeatherDisplay:10.37,2013-09-11 11:00:00,
2013-09-11 07:05:00,73.8,72.2,29.92,SW,225,5.8,5.8,95,0.00,CLR,,0.00,WeatherDisplay:10.37,2013-09-11 11:05:00,
2013-09-11 07:10:00,73.4,72.2,29.92,SW,225,8.1,8.1,96,0.00,CLR,,0.00,WeatherDisplay:10.37,2013-09-11 11:10:00,
2013-09-11 07:15:00,73.4,72.2,29.91,SW,225,6.9,6.9,96,0.00,CLR,,0.00,WeatherDisplay:10.37,2013-09-11 11:15:00,
2013-09-11 07:20:00,73.2,72.0,29.92,SW,225,5.8,5.8,96,0.00,CLR,,0.00,WeatherDisplay:10.37,2013-09-11 11:20:00,
2013-09-11 07:25:00,73.2,72.3,29.93,SW,225,8.1,8.1,97,0.00,CLR,,0.00,WeatherDisplay:10.37,2013-09-11 11:25:00,
2013-09-11 07:30:00,73.0,72.1,29.93,SW,225,5.8,5.8,97,0.00,CLR,,0.00,WeatherDisplay:10.37,2013-09-11 11:30:00,
2013-09-11 07:35:00,73.2,72.6,29.92,SW,225,5.8,5.8,98,0.00,CLR,,0.00,WeatherDisplay:10.37,2013-09-11 11:35:00,
2013-09-11 07:40:00,73.4,72.8,29.93,SSW,202,5.8,5.8,98,0.00,CLR,,0.00,WeatherDisplay:10.37,2013-09-11 11:40:00,
2013-09-11 07:45:00,73.4,72.8,29.93,South,180,8.1,8.1,98,0.00,CLR,,0.00,WeatherDisplay:10.37,2013-09-11 11:45:00,
2013-09-11 07:50:00,73.6,73.0,29.93,SW,225,9.2,9.2,98,0.00,CLR,,0.00,WeatherDisplay:10.37,2013-09-11 11:50:00,
2013-09-11 07:55:00,73.8,73.5,29.93,SW,225,8.1,8.1,99,0.00,CLR,,0.00,WeatherDisplay:10.37,2013-09-11 11:55:00,
2013-09-11 08:00:00,73.9,73.3,29.93,SW,225,5.8,5.8,98,0.00,CLR,,0.00,WeatherDisplay:10.37,2013-09-11 12:00:00,
2013-09-11 08:05:00,73.9,73.3,29.93,SW,225,6.9,6.9,98,0.00,CLR,,0.00,WeatherDisplay:10.37,2013-09-11 12:05:00,
2013-09-11 08:10:00,74.5,73.9,29.93,SW,225,8.1,8.1,98,0.00,CLR,,0.00,WeatherDisplay:10.37,2013-09-11 12:10:00,
2013-09-11 08:15:00,74.8,74.2,29.93,SW,225,8.1,8.1,98,0.00,CLR,,0.00,WeatherDisplay:10.37,2013-09-11 12:15:00,
2013-09-11 08:20:00,75.0,74.4,29.93,West,270,10.4,10.4,98,0.00,CLR,,0.00,WeatherDisplay:10.37,2013-09-11 12:20:00,
2013-09-11 08:25:00,75.4,74.5,29.93,SW,225,8.1,8.1,97,0.00,CLR,,0.00,WeatherDisplay:10.37,2013-09-11 12:25:00,
2013-09-11 08:30:00,75.7,74.8,29.93,SW,225,8.1,8.1,97,0.00,CLR,,0.00,WeatherDisplay:10.37,2013-09-11 12:30:00,
2013-09-11 08:35:00,76.1,75.2,29.94,SW,225,10.4,10.4,97,0.00,CLR,,0.00,WeatherDisplay:10.37,2013-09-11 12:35:00,
2013-09-11 08:40:00,76.6,75.4,29.94,SW,225,11.5,11.5,96,0.00,CLR,,0.00,WeatherDisplay:10.37,2013-09-11 12:40:00,
2013-09-11 08:45:00,77.0,75.5,29.94,NW,315,13.8,13.8,95,0.00,CLR,,0.00,WeatherDisplay:10.37,2013-09-11 12:45:00,
2013-09-11 08:50:00,77.2,75.6,29.93,SW,225,9.2,9.2,95,0.00,CLR,,0.00,WeatherDisplay:10.37,2013-09-11 12:50:00,
2013-09-11 08:55:00,77.5,75.7,29.94,SW,225,9.2,9.2,94,0.00,CLR,,0.00,WeatherDisplay:10.37,2013-09-11 12:55:00,
2013-09-11 09:00:00,77.9,75.7,29.93,SW,225,8.1,8.1,93,0.00,CLR,,0.00,WeatherDisplay:10.37,2013-09-11 13:00:00,
2013-09-11 09:05:00,77.9,75.7,29.94,SW,225,5.8,5.8,93,0.00,CLR,,0.00,WeatherDisplay:10.37,2013-09-11 13:05:00,
2013-09-11 09:10:00,79.0,76.5,29.94,NW,315,9.2,9.2,92,0.00,CLR,,0.00,WeatherDisplay:10.37,2013-09-11 13:10:00,
2013-09-11 09:15:00,79.5,76.7,29.94,SW,225,9.2,9.2,91,0.00,CLR,,0.00,WeatherDisplay:10.37,2013-09-11 13:15:00,
2013-09-11 09:20:00,80.1,76.9,29.94,West,270,9.2,9.2,90,0.00,CLR,,0.00,WeatherDisplay:10.37,2013-09-11 13:20:00,
2013-09-11 09:25:00,80.8,77.2,29.94,SW,225,9.2,9.2,89,0.00,CLR,,0.00,WeatherDisplay:10.37,2013-09-11 13:25:00,
2013-09-11 09:30:00,81.3,77.1,29.94,SW,225,9.2,9.2,87,0.00,CLR,,0.00,WeatherDisplay:10.37,2013-09-11 13:30:00,
2013-09-11 09:35:00,81.5,76.9,29.94,WSW,248,8.1,8.1,86,0.00,CLR,,0.00,WeatherDisplay:10.37,2013-09-11 13:35:00,
2013-09-11 09:40:00,81.9,76.2,29.94,SW,225,12.7,12.7,83,0.00,CLR,,0.00,WeatherDisplay:10.37,2013-09-11 13:40:00,
2013-09-11 09:45:00,82.2,76.5,29.93,SW,225,11.5,11.5,83,0.00,CLR,,0.00,WeatherDisplay:10.37,2013-09-11 13:45:00,
2013-09-11 09:50:00,82.6,76.5,29.94,SW,225,10.4,10.4,82,0.00,CLR,,0.00,WeatherDisplay:10.37,2013-09-11 13:50:00,
2013-09-11 09:55:00,83.1,77.1,29.94,SW,225,9.2,9.2,82,0.00,CLR,,0.00,WeatherDisplay:10.37,2013-09-11 13:55:00,
2013-09-11 10:00:00,83.5,76.7,29.93,NW,315,8.1,8.1,80,0.00,CLR,,0.00,WeatherDisplay:10.37,2013-09-11 14:00:00,
2013-09-11 10:05:00,83.5,76.7,29.93,NW,315,5.8,5.8,80,0.00,CLR,,0.00,WeatherDisplay:10.37,2013-09-11 14:05:00,
2013-09-11 10:10:00,84.0,76.8,29.93,West,270,10.4,10.4,79,0.00,CLR,,0.00,WeatherDisplay:10.37,2013-09-11 14:10:00,
2013-09-11 10:15:00,84.2,76.6,29.94,WNW,292,13.8,13.8,78,0.00,CLR,,0.00,WeatherDisplay:10.37,2013-09-11 14:15:00,
2013-09-11 10:20:00,84.4,76.8,29.93,West,270,8.1,8.1,78,0.00,CLR,,0.00,WeatherDisplay:10.37,2013-09-11 14:20:00,
2013-09-11 10:25:00,84.7,76.7,29.94,SW,225,12.7,12.7,77,0.00,CLR,,0.00,WeatherDisplay:10.37,2013-09-11 14:25:00,
2013-09-11 10:30:00,84.7,76.3,29.93,South,180,12.7,12.7,76,0.00,CLR,,0.00,WeatherDisplay:10.37,2013-09-11 14:30:00,
2013-09-11 10:35:00,84.7,76.3,29.93,North,0,9.2,9.2,76,0.00,CLR,,0.00,WeatherDisplay:10.37,2013-09-11 14:35:00,
2013-09-11 10:40:00,84.9,76.1,29.93,NW,315,17.3,17.3,75,0.00,CLR,,0.00,WeatherDisplay:10.37,2013-09-11 14:40:00,
2013-09-11 10:45:00,85.1,76.7,29.93,SW,225,10.4,10.4,76,0.00,CLR,,0.00,WeatherDisplay:10.37,2013-09-11 14:45:00,
2013-09-11 10:50:00,86.0,77.1,29.93,WNW,292,11.5,11.5,75,0.00,CLR,,0.00,WeatherDisplay:10.37,2013-09-11 14:50:00,
2013-09-11 10:55:00,86.7,77.0,29.93,West,270,12.7,12.7,73,0.00,CLR,,0.00,WeatherDisplay:10.37,2013-09-11 14:55:00,
2013-09-11 11:00:00,87.1,77.8,29.93,WSW,248,10.4,10.4,74,0.00,CLR,,0.00,WeatherDisplay:10.37,2013-09-11 15:00:00,
2013-09-11 11:05:00,87.1,77.8,29.93,WSW,248,10.4,10.4,74,0.00,CLR,,0.00,WeatherDisplay:10.37,2013-09-11 15:05:00,
2013-09-11 11:10:00,87.4,77.7,29.93,SW,225,11.5,11.5,73,0.00,CLR,,0.00,WeatherDisplay:10.37,2013-09-11 15:10:00,
2013-09-11 11:15:00,88.0,78.2,29.93,SW,225,10.4,10.4,73,0.00,CLR,,0.00,WeatherDisplay:10.37,2013-09-11 15:15:00,
2013-09-11 11:20:00,88.5,78.3,29.93,North,0,8.1,8.1,72,0.00,CLR,,0.00,WeatherDisplay:10.37,2013-09-11 15:20:00,
2013-09-11 11:25:00,88.5,77.5,29.93,NW,315,15.0,15.0,70,0.00,CLR,,0.00,WeatherDisplay:10.37,2013-09-11 15:25:00,
2013-09-11 11:30:00,88.7,77.2,29.92,SW,225,11.5,11.5,69,0.00,CLR,,0.00,WeatherDisplay:10.37,2013-09-11 15:30:00,
2013-09-11 11:35:00,88.9,77.8,29.93,SW,225,13.0,13.0,70,0.00,CLR,,0.00,WeatherDisplay:10.37,2013-09-11 15:35:00,
2013-09-11 11:40:00,89.2,77.3,29.92,WNW,292,12.7,12.7,68,0.00,CLR,,0.00,WeatherDisplay:10.37,2013-09-11 15:40:00,
2013-09-11 11:45:00,89.4,77.9,29.92,SW,225,8.1,8.1,69,0.00,CLR,,0.00,WeatherDisplay:10.37,2013-09-11 15:45:00,
2013-09-11 11:50:00,89.2,77.7,29.92,SW,225,9.2,9.2,69,0.00,CLR,,0.00,WeatherDisplay:10.37,2013-09-11 15:50:00,
2013-09-11 11:55:00,89.6,78.5,29.93,NE,45,5.8,5.8,70,0.00,CLR,,0.00,WeatherDisplay:10.37,2013-09-11 15:55:00,
2013-09-11 12:00:00,90.3,78.8,29.93,SW,225,12.7,12.7,69,0.00,CLR,,0.00,WeatherDisplay:10.37,2013-09-11 16:00:00,
2013-09-11 12:05:00,90.3,78.8,29.93,SW,225,11.5,11.5,69,0.00,CLR,,0.00,WeatherDisplay:10.37,2013-09-11 16:05:00,
2013-09-11 12:10:00,90.9,77.9,29.93,SW,225,12.7,12.7,66,0.00,CLR,,0.00,WeatherDisplay:10.37,2013-09-11 16:10:00,
2013-09-11 12:15:00,90.7,77.8,29.93,SW,225,12.7,12.7,66,0.00,CLR,,0.00,WeatherDisplay:10.37,2013-09-11 16:15:00,
2013-09-11 12:20:00,90.5,78.5,29.94,WSW,248,13.8,13.8,68,0.00,CLR,,0.00,WeatherDisplay:10.37,2013-09-11 16:20:00,
2013-09-11 12:25:00,89.6,77.2,29.94,SW,225,9.2,9.2,67,0.00,CLR,,0.00,WeatherDisplay:10.37,2013-09-11 16:25:00,
2013-09-11 12:30:00,89.1,77.1,29.94,ESE,112,8.1,8.1,68,0.00,CLR,,0.00,WeatherDisplay:10.37,2013-09-11 16:30:00,
2013-09-11 12:35:00,89.2,77.3,29.93,East,90,10.4,10.4,68,0.00,CLR,,0.00,WeatherDisplay:10.37,2013-09-11 16:35:00,
2013-09-11 12:40:00,89.2,77.7,29.93,South,180,5.8,5.8,69,0.00,CLR,,0.00,WeatherDisplay:10.37,2013-09-11 16:40:00,
2013-09-11 12:45:00,90.1,78.1,29.93,West,270,10.4,10.4,68,0.00,CLR,,0.00,WeatherDisplay:10.37,2013-09-11 16:45:00,
2013-09-11 12:50:00,90.7,78.2,29.93,West,270,3.5,0.0,67,0.00,CLR,,0.00,WeatherDisplay:10.37,2013-09-11 16:50:00,
2013-09-11 12:55:00,91.2,79.2,29.92,West,270,5.8,5.8,68,0.00,CLR,,0.00,WeatherDisplay:10.37,2013-09-11 16:55:00,
2013-09-11 13:00:00,92.1,79.1,29.93,SW,225,9.2,9.2,66,0.00,CLR,,0.00,WeatherDisplay:10.37,2013-09-11 17:00:00,
2013-09-11 13:06:00,92.1,79.1,29.92,SW,225,6.9,6.9,66,0.00,CLR,,0.00,WeatherDisplay:10.37,2013-09-11 17:06:00,
2013-09-11 13:11:00,93.6,78.6,29.91,SW,225,11.5,11.5,62,0.00,CLR,,0.00,WeatherDisplay:10.37,2013-09-11 17:11:00,
2013-09-11 13:16:00,93.6,78.1,29.91,SW,225,9.2,9.2,61,0.00,CLR,,0.00,WeatherDisplay:10.37,2013-09-11 17:16:00,
2013-09-11 13:21:00,93.7,78.7,29.91,SW,225,8.1,8.1,62,0.00,CLR,,0.00,WeatherDisplay:10.37,2013-09-11 17:21:00,
2013-09-11 13:26:00,94.1,78.6,29.90,SW,225,8.1,8.1,61,0.00,CLR,,0.00,WeatherDisplay:10.37,2013-09-11 17:26:00,
2013-09-11 13:31:00,94.6,78.1,29.91,WSW,248,12.7,12.7,59,0.00,CLR,,0.00,WeatherDisplay:10.37,2013-09-11 17:31:00,
2013-09-11 13:36:00,95.0,78.4,29.90,SW,225,6.9,6.9,59,0.00,CLR,,0.00,WeatherDisplay:10.37,2013-09-11 17:36:00,
2013-09-11 13:41:00,95.4,78.8,29.91,South,180,5.8,5.8,59,0.00,CLR,,0.00,WeatherDisplay:10.37,2013-09-11 17:41:00,
2013-09-11 13:46:00,95.9,79.3,29.90,SW,225,10.4,10.4,59,0.00,CLR,,0.00,WeatherDisplay:10.37,2013-09-11 17:46:00,
2013-09-11 13:51:00,96.3,79.1,29.90,SW,225,8.1,8.1,58,0.00,CLR,,0.00,WeatherDisplay:10.37,2013-09-11 17:51:00,
2013-09-11 13:56:00,96.1,77.8,29.90,West,270,8.1,8.1,56,0.00,CLR,,0.00,WeatherDisplay:10.37,2013-09-11 17:56:00,
2013-09-11 14:01:00,95.7,78.0,29.90,West,270,10.4,10.4,57,0.00,CLR,,0.00,WeatherDisplay:10.37,2013-09-11 18:01:00,
2013-09-11 14:06:00,95.7,78.0,29.89,West,270,8.1,8.1,57,0.00,CLR,,0.00,WeatherDisplay:10.37,2013-09-11 18:06:00,
2013-09-11 14:11:00,95.9,77.7,29.89,SW,225,8.1,8.1,56,0.00,CLR,,0.00,WeatherDisplay:10.37,2013-09-11 18:11:00,
2013-09-11 14:16:00,95.9,77.7,29.89,SW,225,9.2,9.2,56,0.00,CLR,,0.00,WeatherDisplay:10.37,2013-09-11 18:16:00,
2013-09-11 14:21:00,95.5,77.3,29.89,SW,225,13.8,13.8,56,0.00,CLR,,0.00,WeatherDisplay:10.37,2013-09-11 18:21:00,
2013-09-11 14:26:00,95.4,77.7,29.89,NW,315,9.2,9.2,57,0.00,CLR,,0.00,WeatherDisplay:10.37,2013-09-11 18:26:00,
2013-09-11 14:31:00,95.0,77.4,29.89,SW,225,8.1,8.1,57,0.00,CLR,,0.00,WeatherDisplay:10.37,2013-09-11 18:31:00,
2013-09-11 14:36:00,94.6,77.0,29.89,SW,225,8.1,8.1,57,0.00,CLR,,0.00,WeatherDisplay:10.37,2013-09-11 18:36:00,
2013-09-11 14:41:00,94.3,77.7,29.89,SW,225,5.8,5.8,59,0.00,CLR,,0.00,WeatherDisplay:10.37,2013-09-11 18:41:00,
2013-09-11 14:46:00,93.9,77.4,29.89,SW,225,8.1,8.1,59,0.00,CLR,,0.00,WeatherDisplay:10.37,2013-09-11 18:46:00,
2013-09-11 14:51:00,93.4,77.4,29.89,SW,225,10.4,10.4,60,0.00,CLR,,0.00,WeatherDisplay:10.37,2013-09-11 18:51:00,
2013-09-11 14:56:00,93.2,76.7,29.89,West,270,6.9,6.9,59,0.00,CLR,,0.00,WeatherDisplay:10.37,2013-09-11 18:56:00,
2013-09-11 15:01:00,93.0,77.1,29.89,SW,225,5.8,5.8,60,0.00,CLR,,0.00,WeatherDisplay:10.37,2013-09-11 19:01:00,
2013-09-11 15:06:00,93.0,77.1,29.89,SW,225,4.6,4.6,60,0.00,CLR,,0.00,WeatherDisplay:10.37,2013-09-11 19:06:00,
2013-09-11 15:11:00,93.0,77.1,29.88,SW,225,12.7,12.7,60,0.00,CLR,,0.00,WeatherDisplay:10.37,2013-09-11 19:11:00,
2013-09-11 15:16:00,93.7,77.8,29.89,SW,225,8.1,8.1,60,0.00,CLR,,0.00,WeatherDisplay:10.37,2013-09-11 19:16:00,
2013-09-11 15:21:00,94.3,77.7,29.88,NW,315,8.1,8.1,59,0.00,CLR,,0.00,WeatherDisplay:10.37,2013-09-11 19:21:00,
2013-09-11 15:26:00,94.3,77.7,29.89,SW,225,8.1,8.1,59,0.00,CLR,,0.00,WeatherDisplay:10.37,2013-09-11 19:26:00,
2013-09-11 15:32:00,94.3,77.7,29.88,SW,225,5.8,5.8,59,0.00,CLR,,0.00,WeatherDisplay:10.37,2013-09-11 19:32:00,
2013-09-11 15:37:00,94.5,77.4,29.88,WSW,248,6.9,6.9,58,0.00,CLR,,0.00,WeatherDisplay:10.37,2013-09-11 19:37:00,
2013-09-11 15:42:00,94.5,77.4,29.88,SW,225,9.2,9.2,58,0.00,CLR,,0.00,WeatherDisplay:10.37,2013-09-11 19:42:00,
2013-09-11 15:47:00,94.6,78.1,29.88,SW,225,10.4,10.4,59,0.00,CLR,,0.00,WeatherDisplay:10.37,2013-09-11 19:47:00,
2013-09-11 15:52:00,94.6,78.1,29.88,SW,225,11.5,11.5,59,0.00,CLR,,0.00,WeatherDisplay:10.37,2013-09-11 19:52:00,
2013-09-11 15:57:00,94.8,78.3,29.88,SW,225,11.5,11.5,59,0.00,CLR,,0.00,WeatherDisplay:10.37,2013-09-11 19:57:00,
2013-09-11 16:02:00,94.5,77.4,29.88,NW,315,10.4,10.4,58,0.00,CLR,,0.00,WeatherDisplay:10.37,2013-09-11 20:02:00,
2013-09-11 16:07:00,94.5,77.4,29.88,NW,315,10.4,10.4,58,0.00,CLR,,0.00,WeatherDisplay:10.37,2013-09-11 20:07:00,
2013-09-11 16:12:00,93.4,76.9,29.88,NNW,338,10.4,10.4,59,0.00,CLR,,0.00,WeatherDisplay:10.37,2013-09-11 20:12:00,
2013-09-11 16:17:00,92.8,76.9,29.87,SW,225,8.1,8.1,60,0.00,CLR,,0.00,WeatherDisplay:10.37,2013-09-11 20:17:00,
2013-09-11 16:22:00,92.7,77.7,29.88,NW,315,8.1,8.1,62,0.00,CLR,,0.00,WeatherDisplay:10.37,2013-09-11 20:22:00,
2013-09-11 16:27:00,93.0,77.6,29.86,West,270,12.7,12.7,61,0.00,CLR,,0.00,WeatherDisplay:10.37,2013-09-11 20:27:00,
2013-09-11 16:32:00,93.0,77.6,29.86,West,270,12.7,12.7,61,0.00,CLR,,0.00,WeatherDisplay:10.37,2013-09-11 20:32:00,
2013-09-11 16:37:00,92.7,77.2,29.86,SW,225,9.2,9.2,61,0.00,CLR,,0.00,WeatherDisplay:10.37,2013-09-11 20:37:00,
2013-09-11 16:42:00,91.6,76.2,29.87,South,180,10.4,10.4,61,0.00,CLR,,0.00,WeatherDisplay:10.37,2013-09-11 20:42:00,
2013-09-11 16:47:00,91.2,76.4,29.86,SW,225,11.5,11.5,62,0.00,CLR,,0.00,WeatherDisplay:10.37,2013-09-11 20:47:00,
2013-09-11 16:52:00,91.2,76.4,29.86,SW,225,8.1,8.1,62,0.00,CLR,,0.00,WeatherDisplay:10.37,2013-09-11 20:52:00,
2013-09-11 16:57:00,91.8,76.9,29.85,NW,315,9.2,9.2,62,0.00,CLR,,0.00,WeatherDisplay:10.37,2013-09-11 20:57:00,
2013-09-11 17:02:00,91.9,77.1,29.85,West,270,11.5,11.5,62,0.00,CLR,,0.00,WeatherDisplay:10.37,2013-09-11 21:02:00,
2013-09-11 17:07:00,91.9,77.1,29.85,West,270,11.5,11.5,62,0.00,CLR,,0.00,WeatherDisplay:10.37,2013-09-11 21:07:00,
2013-09-11 17:12:00,91.4,75.6,29.85,SW,225,11.5,11.5,60,0.00,CLR,,0.00,WeatherDisplay:10.37,2013-09-11 21:12:00,
2013-09-11 17:17:00,90.9,76.0,29.85,West,270,6.9,6.9,62,0.00,CLR,,0.00,WeatherDisplay:10.37,2013-09-11 21:17:00,
2013-09-11 17:22:00,90.7,76.8,29.85,NW,315,5.8,5.8,64,0.00,CLR,,0.00,WeatherDisplay:10.37,2013-09-11 21:22:00,
2013-09-11 17:27:00,90.0,76.6,29.85,South,180,5.8,5.8,65,0.00,CLR,,0.00,WeatherDisplay:10.37,2013-09-11 21:27:00,
2013-09-11 17:32:00,89.1,76.2,29.86,NW,315,8.1,8.1,66,0.00,CLR,,0.00,WeatherDisplay:10.37,2013-09-11 21:32:00,
2013-09-11 17:37:00,86.9,75.9,29.86,North,0,4.6,4.6,70,0.00,CLR,,0.00,WeatherDisplay:10.37,2013-09-11 21:37:00,
2013-09-11 17:42:00,85.6,75.6,29.85,NW,315,6.9,6.9,72,0.00,CLR,,0.00,WeatherDisplay:10.37,2013-09-11 21:42:00,
2013-09-11 17:47:00,85.5,75.8,29.86,East,90,6.9,6.9,73,0.00,CLR,,0.00,WeatherDisplay:10.37,2013-09-11 21:47:00,
2013-09-11 17:52:00,85.3,75.6,29.86,West,270,3.5,3.5,73,0.00,CLR,,0.00,WeatherDisplay:10.37,2013-09-11 21:52:00,
2013-09-11 17:57:00,84.9,75.3,29.86,NW,315,5.8,5.8,73,0.00,CLR,,0.00,WeatherDisplay:10.37,2013-09-11 21:57:00,
2013-09-11 18:02:00,84.7,75.1,29.86,South,180,2.3,0.0,73,0.00,CLR,,0.00,WeatherDisplay:10.37,2013-09-11 22:02:00,
2013-09-11 18:07:00,84.4,74.4,29.86,South,180,8.1,8.1,72,0.00,CLR,,0.00,WeatherDisplay:10.37,2013-09-11 22:07:00,
2013-09-11 18:12:00,83.8,73.8,29.87,SSW,202,8.1,8.1,72,0.00,CLR,,0.00,WeatherDisplay:10.37,2013-09-11 22:12:00,
2013-09-11 18:17:00,83.7,73.7,29.88,SW,225,5.8,5.8,72,0.00,CLR,,0.00,WeatherDisplay:10.37,2013-09-11 22:17:00,
2013-09-11 18:22:00,83.3,73.3,29.88,WNW,292,9.2,9.2,72,0.00,CLR,,0.00,WeatherDisplay:10.37,2013-09-11 22:22:00,
2013-09-11 18:27:00,83.1,72.7,29.88,SE,135,5.8,5.8,71,0.00,CLR,,0.00,WeatherDisplay:10.37,2013-09-11 22:27:00,
2013-09-11 18:32:00,82.9,72.1,29.89,South,180,10.4,10.4,70,0.00,CLR,,0.00,WeatherDisplay:10.37,2013-09-11 22:32:00,
2013-09-11 18:37:00,82.8,71.5,29.89,SW,225,12.7,12.7,69,0.00,CLR,,0.00,WeatherDisplay:10.37,2013-09-11 22:37:00,
2013-09-11 18:42:00,82.4,72.0,29.89,North,0,4.6,4.6,71,0.00,CLR,,0.00,WeatherDisplay:10.37,2013-09-11 22:42:00,
2013-09-11 18:47:00,82.4,71.6,29.89,North,0,9.2,9.2,70,0.00,CLR,,0.00,WeatherDisplay:10.37,2013-09-11 22:47:00,
2013-09-11 18:52:00,82.4,70.8,29.89,SW,225,10.4,10.4,68,0.00,CLR,,0.00,WeatherDisplay:10.37,2013-09-11 22:52:00,
2013-09-11 18:57:00,82.4,70.8,29.90,WSW,248,12.7,12.7,68,0.00,CLR,,0.00,WeatherDisplay:10.37,2013-09-11 22:57:00,
2013-09-11 19:02:00,82.2,70.6,29.90,SW,225,10.4,10.4,68,0.00,CLR,,0.00,WeatherDisplay:10.37,2013-09-11 23:02:00,
2013-09-11 19:07:00,82.2,70.6,29.89,WSW,248,10.4,10.4,68,0.00,CLR,,0.00,WeatherDisplay:10.37,2013-09-11 23:07:00,
2013-09-11 19:12:00,81.9,70.3,29.89,SW,225,6.9,6.9,68,0.00,CLR,,0.00,WeatherDisplay:10.37,2013-09-11 23:12:00,
2013-09-11 19:17:00,81.5,69.9,29.89,SW,225,9.2,9.2,68,0.00,CLR,,0.00,WeatherDisplay:10.37,2013-09-11 23:17:00,
2013-09-11 19:22:00,81.1,69.6,29.89,SW,225,6.9,6.9,68,0.00,CLR,,0.00,WeatherDisplay:10.37,2013-09-11 23:22:00,
2013-09-11 19:27:00,81.0,70.3,29.89,SW,225,4.6,4.6,70,0.00,CLR,,0.00,WeatherDisplay:10.37,2013-09-11 23:27:00,
2013-09-11 19:32:00,80.8,70.1,29.89,SW,225,5.8,5.8,70,0.00,CLR,,0.00,WeatherDisplay:10.37,2013-09-11 23:32:00,
2013-09-11 19:37:00,80.6,70.3,29.89,SW,225,4.6,4.6,71,0.00,CLR,,0.00,WeatherDisplay:10.37,2013-09-11 23:37:00,
2013-09-11 19:42:00,80.2,70.0,29.89,SW,225,4.6,4.6,71,0.00,CLR,,0.00,WeatherDisplay:10.37,2013-09-11 23:42:00,
2013-09-11 19:47:00,79.9,70.0,29.89,SW,225,3.5,3.5,72,0.00,CLR,,0.00,WeatherDisplay:10.37,2013-09-11 23:47:00,
2013-09-11 19:53:00,79.3,69.9,29.90,SW,225,5.8,5.8,73,0.00,CLR,,0.00,WeatherDisplay:10.37,2013-09-11 23:53:00,
2013-09-11 19:58:00,79.0,69.6,29.89,SW,225,4.6,4.6,73,0.00,CLR,,0.00,WeatherDisplay:10.37,2013-09-11 23:58:00,
2013-09-11 20:03:00,78.8,69.4,29.89,SW,225,3.5,3.5,73,0.00,CLR,,0.00,WeatherDisplay:10.37,2013-09-12 00:03:00,
2013-09-11 20:08:00,78.6,69.6,29.89,SW,225,4.5,4.5,74,0.00,CLR,,0.00,WeatherDisplay:10.37,2013-09-12 00:08:00,
2013-09-11 20:13:00,78.3,69.3,29.88,SW,225,5.8,5.8,74,0.00,CLR,,0.00,WeatherDisplay:10.37,2013-09-12 00:13:00,
2013-09-11 20:18:00,78.3,69.3,29.88,SW,225,3.5,3.5,74,0.00,CLR,,0.00,WeatherDisplay:10.37,2013-09-12 00:18:00,
2013-09-11 20:23:00,77.9,69.3,29.88,West,270,4.6,4.6,75,0.00,CLR,,0.00,WeatherDisplay:10.37,2013-09-12 00:23:00,
2013-09-11 20:28:00,77.7,69.2,29.88,SW,225,3.5,0.0,75,0.00,CLR,,0.00,WeatherDisplay:10.37,2013-09-12 00:28:00,
2013-09-11 20:33:00,77.4,69.2,29.89,SW,225,1.2,1.2,76,0.00,CLR,,0.00,WeatherDisplay:10.37,2013-09-12 00:33:00,
2013-09-11 20:38:00,77.4,69.2,29.88,West,270,3.5,3.5,76,0.00,CLR,,0.00,WeatherDisplay:10.37,2013-09-12 00:38:00,
2013-09-11 20:43:00,77.0,69.2,29.89,SW,225,3.5,3.5,77,0.00,CLR,,0.00,WeatherDisplay:10.37,2013-09-12 00:43:00,
2013-09-11 20:48:00,76.8,69.1,29.89,West,270,1.2,0.0,77,0.00,CLR,,0.00,WeatherDisplay:10.37,2013-09-12 00:48:00,
2013-09-11 20:53:00,76.6,69.3,29.89,West,270,1.2,0.0,78,0.00,CLR,,0.00,WeatherDisplay:10.37,2013-09-12 00:53:00,
2013-09-11 20:58:00,76.3,68.9,29.89,West,270,1.2,1.2,78,0.00,CLR,,0.00,WeatherDisplay:10.37,2013-09-12 00:58:00,
2013-09-11 21:03:00,76.3,69.3,29.89,West,270,1.2,0.0,79,0.00,CLR,,0.00,WeatherDisplay:10.37,2013-09-12 01:03:00,
2013-09-11 21:08:00,75.9,69.3,29.89,SW,225,2.3,2.3,80,0.00,CLR,,0.00,WeatherDisplay:10.37,2013-09-12 01:08:00,
2013-09-11 21:13:00,75.6,69.0,29.89,SW,225,3.5,3.5,80,0.00,CLR,,0.00,WeatherDisplay:10.37,2013-09-12 01:13:00,
2013-09-11 21:18:00,75.6,69.0,29.89,SW,225,2.3,2.3,80,0.00,CLR,,0.00,WeatherDisplay:10.37,2013-09-12 01:18:00,
2013-09-11 21:26:00,75.6,69.0,29.90,North,0,2.3,0.0,80,0.00,CLR,,0.00,WeatherDisplay:10.37,2013-09-12 01:26:00,
2013-09-11 21:31:00,74.7,68.4,29.89,SW,225,3.5,3.5,81,0.00,CLR,,0.00,WeatherDisplay:10.37,2013-09-12 01:31:00,
2013-09-11 21:37:00,74.3,68.4,29.89,SW,225,2.3,2.3,82,0.00,CLR,,0.00,WeatherDisplay:10.37,2013-09-12 01:37:00,
2013-09-11 21:42:00,74.1,68.3,29.89,SW,225,3.5,0.0,82,0.00,CLR,,0.00,WeatherDisplay:10.37,2013-09-12 01:42:00,
2013-09-11 21:47:00,73.9,68.4,29.89,SW,225,2.3,2.3,83,0.00,CLR,,0.00,WeatherDisplay:10.37,2013-09-12 01:47:00,
2013-09-11 21:52:00,73.8,68.6,29.89,SW,225,3.5,3.5,84,0.00,CLR,,0.00,WeatherDisplay:10.37,2013-09-12 01:52:00,
2013-09-11 21:57:00,73.6,68.4,29.90,SW,225,3.5,3.5,84,0.00,CLR,,0.00,WeatherDisplay:10.37,2013-09-12 01:57:00,
2013-09-11 22:02:00,73.6,68.8,29.89,SW,225,2.3,2.3,85,0.00,CLR,,0.00,WeatherDisplay:10.37,2013-09-12 02:02:00,
2013-09-11 22:07:00,73.6,68.8,29.89,SW,225,2.3,2.3,85,0.00,CLR,,0.00,WeatherDisplay:10.37,2013-09-12 02:07:00,
2013-09-11 22:12:00,73.2,68.8,29.89,SW,225,2.3,2.3,86,0.00,CLR,,0.00,WeatherDisplay:10.37,2013-09-12 02:12:00,
2013-09-11 22:17:00,73.2,68.8,29.89,SW,225,3.5,3.5,86,0.00,CLR,,0.00,WeatherDisplay:10.37,2013-09-12 02:17:00,
2013-09-11 22:22:00,73.0,68.6,29.89,SW,225,3.5,3.5,86,0.00,CLR,,0.00,WeatherDisplay:10.37,2013-09-12 02:22:00,
2013-09-11 22:27:00,72.9,68.8,29.89,SW,225,3.5,3.5,87,0.00,CLR,,0.00,WeatherDisplay:10.37,2013-09-12 02:27:00,
2013-09-11 22:32:00,72.7,68.6,29.89,SW,225,3.5,3.5,87,0.00,CLR,,0.00,WeatherDisplay:10.37,2013-09-12 02:32:00,
2013-09-11 22:37:00,72.5,68.7,29.89,SW,225,3.5,3.5,88,0.00,CLR,,0.00,WeatherDisplay:10.37,2013-09-12 02:37:00,
2013-09-11 22:43:00,72.3,68.6,29.89,West,270,2.3,2.3,88,0.00,CLR,,0.00,WeatherDisplay:10.37,2013-09-12 02:43:00,
2013-09-11 22:48:00,72.1,68.4,29.89,West,270,1.2,0.0,88,0.00,CLR,,0.00,WeatherDisplay:10.37,2013-09-12 02:48:00,
2013-09-11 22:53:00,72.0,68.5,29.89,West,270,2.3,2.3,89,0.00,CLR,,0.00,WeatherDisplay:10.37,2013-09-12 02:53:00,
2013-09-11 22:58:00,71.8,68.4,29.89,SW,225,2.3,0.0,89,0.00,CLR,,0.00,WeatherDisplay:10.37,2013-09-12 02:58:00,
2013-09-11 23:03:00,71.8,68.4,29.89,SW,225,1.2,1.2,89,0.00,CLR,,0.00,WeatherDisplay:10.37,2013-09-12 03:03:00,
2013-09-11 23:08:00,71.8,68.4,29.88,SW,225,1.2,1.2,89,0.00,CLR,,0.00,WeatherDisplay:10.37,2013-09-12 03:08:00,
2013-09-11 23:13:00,71.4,68.3,29.88,SW,225,3.5,3.5,90,0.00,CLR,,0.00,WeatherDisplay:10.37,2013-09-12 03:13:00,
2013-09-11 23:18:00,71.2,68.5,29.89,SW,225,3.5,3.5,91,0.00,CLR,,0.00,WeatherDisplay:10.37,2013-09-12 03:18:00,
2013-09-11 23:23:00,71.2,68.5,29.88,SW,225,2.3,2.3,91,0.00,CLR,,0.00,WeatherDisplay:10.37,2013-09-12 03:23:00,
2013-09-11 23:28:00,71.1,68.6,29.88,SW,225,3.5,3.5,92,0.00,CLR,,0.00,WeatherDisplay:10.37,2013-09-12 03:28:00,
2013-09-11 23:33:00,71.1,68.6,29.88,SW,225,1.2,0.0,92,0.00,CLR,,0.00,WeatherDisplay:10.37,2013-09-12 03:33:00,
2013-09-11 23:38:00,70.9,68.4,29.88,West,270,1.2,0.0,92,0.00,CLR,,0.00,WeatherDisplay:10.37,2013-09-12 03:38:00,
2013-09-11 23:43:00,71.1,68.9,29.87,SW,225,3.5,3.5,93,0.00,CLR,,0.00,WeatherDisplay:10.37,2013-09-12 03:43:00,
2013-09-11 23:48:00,70.9,68.8,29.87,SW,225,3.5,3.5,93,0.00,CLR,,0.00,WeatherDisplay:10.37,2013-09-12 03:48:00,
2013-09-11 23:53:00,70.9,68.8,29.88,SW,225,3.5,3.5,93,0.00,CLR,,0.00,WeatherDisplay:10.37,2013-09-12 03:53:00,
2013-09-11 23:58:00,70.9,68.8,29.87,SW,225,3.5,3.5,93,0.00,CLR,,0.00,WeatherDisplay:10.37,2013-09-12 03:58:00,